createdAt,value
2018-01-17T00:00:38.760Z,4.10
2018-01-17T00:03:04.977Z,2.78
2018-01-17T00:05:32.021Z,3.75
2018-01-17T00:07:58.273Z,3.22
2018-01-17T00:10:24.611Z,4.22
2018-01-17T00:12:50.857Z,3.45
2018-01-17T00:15:17.840Z,3.22
2018-01-17T00:17:44.826Z,3.25
2018-01-17T00:20:11.093Z,3.03
2018-01-17T00:22:41.074Z,3.75
2018-01-17T00:25:07.343Z,3.85
2018-01-17T00:27:34.327Z,3.58
2018-01-17T00:30:00.605Z,3.75
2018-01-17T00:32:26.945Z,4.15
2018-01-17T00:34:53.192Z,3.47
2018-01-17T00:37:19.445Z,3.17
2018-01-17T00:39:46.446Z,3.67
2018-01-17T00:42:12.950Z,4.15
2018-01-17T00:44:39.204Z,2.70
2018-01-17T00:47:05.494Z,3.70
2018-01-17T00:49:32.606Z,4.05
2018-01-17T00:51:59.597Z,4.10
2018-01-17T00:54:27.856Z,4.15
2018-01-17T00:59:55.189Z,3.65
2018-01-17T01:02:21.322Z,5.07
2018-01-17T01:04:47.372Z,3.72
2018-01-17T01:07:13.435Z,4.05
2018-01-17T01:09:40.234Z,4.82
2018-01-17T01:12:06.268Z,4.32
2018-01-17T01:14:32.338Z,4.37
2018-01-17T01:22:58.885Z,3.67
2018-01-17T01:25:25.130Z,3.45
2018-01-17T01:27:51.744Z,4.10
2018-01-17T01:30:19.036Z,3.67
2018-01-17T01:32:45.276Z,3.65
2018-01-17T01:35:11.590Z,3.55
2018-01-17T01:37:38.610Z,3.70
2018-01-17T01:40:04.935Z,4.05
2018-01-17T01:42:31.198Z,4.22
2018-01-17T01:44:57.429Z,4.20
2018-01-17T01:47:23.672Z,4.07
2018-01-17T01:49:50.213Z,4.37
2018-01-17T01:52:16.299Z,5.25
2018-01-17T01:54:42.631Z,4.00
2018-01-17T01:57:09.430Z,4.47
2018-01-17T01:59:35.476Z,2.87
2018-01-17T02:02:01.549Z,3.50
2018-01-17T02:04:27.596Z,3.17
2018-01-17T02:06:53.708Z,2.90
2018-01-17T02:09:20.507Z,3.10
2018-01-17T02:11:46.565Z,2.55
2018-01-17T02:14:12.614Z,1.10
2018-01-17T02:16:38.663Z,1.10
2018-01-17T02:19:04.898Z,0.75
2018-01-17T02:21:30.949Z,1.00
2018-01-17T02:23:57.077Z,0.90
2018-01-17T02:26:23.138Z,1.15
2018-01-17T02:28:49.941Z,1.60
2018-01-17T02:31:20.012Z,1.70
2018-01-17T02:33:46.066Z,1.23
2018-01-17T02:36:12.233Z,1.33
2018-01-17T02:38:38.277Z,1.55
2018-01-17T02:41:04.373Z,1.70
2018-01-17T02:43:31.357Z,1.52
2018-01-17T02:45:57.436Z,1.25
2018-01-17T02:48:23.489Z,1.80
2018-01-17T02:50:50.904Z,0.82
2018-01-17T02:53:16.969Z,1.15
2018-01-17T02:55:43.086Z,1.30
2018-01-17T02:58:09.924Z,1.40
2018-01-17T03:00:36.172Z,1.20
2018-01-17T03:03:02.254Z,1.42
2018-01-17T03:05:30.249Z,1.85
2018-01-17T03:07:56.308Z,1.58
2018-01-17T03:10:22.390Z,1.83
2018-01-17T03:12:49.214Z,2.10
2018-01-17T03:15:15.298Z,2.47
2018-01-17T03:17:41.362Z,1.80
2018-01-17T03:20:07.444Z,1.92
2018-01-17T03:22:34.248Z,1.62
2018-01-17T03:25:00.320Z,2.40
2018-01-17T03:27:26.689Z,1.95
2018-01-17T03:29:52.759Z,1.95
2018-01-17T03:32:18.826Z,1.92
2018-01-17T03:34:44.885Z,1.80
2018-01-17T03:37:10.948Z,2.92
2018-01-17T03:39:37.029Z,1.90
2018-01-17T03:42:03.106Z,2.70
2018-01-17T03:44:29.223Z,3.15
2018-01-17T03:46:55.269Z,3.45
2018-01-17T03:49:21.388Z,3.72
2018-01-17T03:51:48.194Z,3.55
2018-01-17T03:54:14.285Z,4.95
2018-01-17T03:56:40.367Z,4.57
2018-01-17T03:59:07.165Z,4.12
2018-01-17T04:01:36.247Z,4.82
2018-01-17T04:04:02.454Z,5.10
2018-01-17T04:06:29.655Z,6.75
2018-01-17T04:08:57.437Z,6.03
2018-01-17T04:11:23.738Z,6.95
2018-01-17T04:13:49.986Z,6.93
2018-01-17T04:16:16.249Z,5.78
2018-01-17T04:18:43.327Z,5.90
2018-01-17T04:21:09.705Z,6.45
2018-01-17T04:23:37.469Z,5.70
2018-01-17T04:26:03.721Z,5.75
2018-01-17T04:28:30.813Z,5.68
2018-01-17T04:30:57.584Z,5.22
2018-01-17T04:33:23.836Z,5.30
2018-01-17T04:35:50.092Z,4.62
2018-01-17T04:38:16.349Z,4.40
2018-01-17T04:40:42.625Z,4.70
2018-01-17T04:43:09.214Z,5.07
2018-01-17T04:45:35.493Z,4.37
2018-01-17T04:48:01.769Z,3.55
2018-01-17T04:50:28.038Z,3.67
2018-01-17T04:52:54.298Z,5.30
2018-01-17T04:55:20.533Z,3.97
2018-01-17T04:57:46.621Z,3.65
2018-01-17T05:00:12.707Z,3.55
2018-01-17T05:02:38.774Z,4.47
2018-01-17T05:05:04.830Z,3.80
2018-01-17T05:07:30.901Z,3.72
2018-01-17T05:09:57.879Z,4.37
2018-01-17T05:12:23.953Z,3.70
2018-01-17T05:14:50.017Z,5.25
2018-01-17T05:17:16.842Z,5.45
2018-01-17T05:19:42.946Z,4.95
2018-01-17T05:22:09.085Z,7.45
2018-01-17T05:24:35.193Z,6.75
2018-01-17T05:27:01.258Z,6.80
2018-01-17T05:29:29.294Z,6.43
2018-01-17T05:31:55.369Z,6.28
2018-01-17T05:34:21.466Z,6.82
2018-01-17T05:36:47.521Z,7.10
2018-01-17T05:39:13.634Z,6.47
2018-01-17T05:41:40.465Z,7.70
2018-01-17T05:44:06.537Z,8.07
2018-01-17T05:46:32.593Z,8.43
2018-01-17T05:49:02.769Z,8.45
2018-01-17T05:51:28.871Z,8.45
2018-01-17T05:53:54.969Z,8.25
2018-01-17T05:56:21.045Z,8.48
2018-01-17T05:58:47.121Z,8.77
2018-01-17T06:01:14.669Z,9.23
2018-01-17T06:03:40.751Z,9.48
2018-01-17T06:06:06.866Z,10.73
2018-01-17T06:08:33.756Z,10.05
2018-01-17T06:11:00.106Z,10.93
2018-01-17T06:13:26.198Z,11.12
2018-01-17T06:15:52.265Z,10.82
2018-01-17T06:18:18.327Z,9.77
2018-01-17T06:20:44.405Z,10.20
2018-01-17T06:23:11.228Z,10.00
2018-01-17T06:25:37.509Z,9.60
2018-01-17T06:28:03.785Z,9.90
2018-01-17T06:30:30.386Z,8.88
2018-01-17T06:32:57.398Z,10.20
2018-01-17T06:35:24.601Z,8.60
2018-01-17T06:37:50.973Z,8.82
2018-01-17T06:40:17.226Z,8.07
2018-01-17T06:42:45.011Z,9.57
2018-01-17T06:45:11.238Z,8.30
2018-01-17T06:47:37.305Z,8.70
2018-01-17T06:50:03.367Z,8.93
2018-01-17T06:52:29.424Z,8.75
2018-01-17T06:54:55.465Z,9.50
2018-01-17T06:57:21.506Z,9.00
2018-01-17T06:59:47.570Z,9.63
2018-01-17T07:02:13.651Z,9.05
2018-01-17T07:04:39.692Z,10.07
2018-01-17T07:07:05.802Z,9.73
2018-01-17T07:09:31.989Z,9.57
2018-01-17T07:11:58.188Z,9.65
2018-01-17T07:14:24.286Z,8.85
2018-01-17T07:16:50.541Z,8.45
2018-01-17T07:19:16.782Z,6.45
2018-01-17T07:21:43.052Z,7.78
2018-01-17T07:24:10.258Z,8.60
2018-01-17T07:26:37.446Z,7.50
2018-01-17T07:29:03.961Z,7.55
2018-01-17T07:31:30.326Z,6.20
2018-01-17T07:33:57.001Z,6.62
2018-01-17T07:36:23.973Z,8.02
2018-01-17T07:38:50.216Z,6.40
2018-01-17T07:41:16.853Z,6.55
2018-01-17T07:46:47.593Z,6.07
2018-01-17T07:52:14.889Z,5.12
2018-01-17T07:54:41.120Z,6.12
2018-01-17T07:57:07.352Z,6.55
2018-01-17T07:59:33.581Z,6.78
2018-01-17T08:01:59.945Z,6.22
2018-01-17T08:04:26.230Z,6.62
2018-01-17T08:06:53.907Z,5.55
2018-01-17T08:09:20.144Z,7.35
2018-01-17T08:11:46.408Z,7.35
2018-01-17T08:14:13.397Z,7.68
2018-01-17T08:16:42.328Z,7.82
2018-01-17T08:19:08.752Z,7.55
2018-01-17T08:21:35.077Z,7.20
2018-01-17T08:24:02.110Z,8.77
2018-01-17T08:26:28.453Z,9.43
2018-01-17T08:28:54.689Z,9.20
2018-01-17T08:31:20.864Z,9.70
2018-01-17T08:33:46.914Z,9.93
2018-01-17T08:36:13.109Z,11.43
2018-01-17T08:38:39.905Z,10.18
2018-01-17T08:41:05.930Z,11.80
2018-01-17T08:43:32.020Z,12.35
2018-01-17T08:45:58.119Z,11.02
2018-01-17T08:48:24.151Z,11.43
2018-01-17T08:50:50.183Z,11.02
2018-01-17T08:53:16.249Z,10.60
2018-01-17T08:55:42.289Z,11.40
2018-01-17T08:58:09.230Z,10.10
2018-01-17T09:00:39.819Z,10.90
2018-01-17T09:03:06.091Z,11.35
2018-01-17T09:05:32.442Z,13.48
2018-01-17T09:07:58.757Z,10.07
2018-01-17T09:10:24.793Z,10.20
2018-01-17T09:12:51.253Z,11.48
2018-01-17T09:15:18.216Z,11.85
2018-01-17T09:17:44.505Z,11.90
2018-01-17T09:20:11.696Z,11.52
2018-01-17T09:22:37.931Z,12.10
2018-01-17T09:25:04.181Z,13.15
2018-01-17T09:27:30.433Z,11.32
2018-01-17T09:29:56.640Z,10.75
2018-01-17T09:32:22.834Z,10.52
2018-01-17T09:34:49.079Z,7.72
2018-01-17T09:37:16.065Z,10.25
2018-01-17T09:39:46.109Z,8.80
2018-01-17T09:42:12.340Z,8.48
2018-01-17T09:44:39.376Z,9.32
2018-01-17T09:47:05.605Z,10.18
2018-01-17T09:49:31.815Z,9.10
2018-01-17T09:51:58.769Z,9.05
2018-01-17T09:54:25.010Z,9.25
2018-01-17T09:56:51.229Z,9.18
2018-01-17T09:59:22.573Z,8.65
2018-01-17T10:01:48.868Z,8.10
2018-01-17T10:04:15.859Z,8.27
2018-01-17T10:06:42.089Z,8.80
2018-01-17T10:09:08.364Z,9.15
2018-01-17T10:11:35.188Z,9.05
2018-01-17T10:14:01.984Z,10.75
2018-01-17T10:16:32.057Z,9.90
2018-01-17T10:18:58.264Z,11.68
2018-01-17T10:21:25.228Z,9.70
2018-01-17T10:23:51.704Z,10.25
2018-01-17T10:26:17.926Z,9.25
2018-01-17T10:28:44.160Z,10.63
2018-01-17T10:31:10.400Z,10.10
2018-01-17T10:33:44.064Z,10.15
2018-01-17T10:36:11.028Z,9.23
2018-01-17T10:38:37.052Z,10.02
2018-01-17T10:41:03.102Z,10.45
2018-01-17T10:43:29.145Z,9.85
2018-01-17T10:45:55.401Z,9.45
2018-01-17T10:48:22.695Z,7.93
2018-01-17T10:50:48.935Z,8.98
2018-01-17T10:53:16.363Z,7.28
2018-01-17T10:55:42.583Z,8.10
2018-01-17T10:58:08.808Z,7.50
2018-01-17T11:00:41.975Z,7.80
2018-01-17T11:03:08.975Z,7.70
2018-01-17T11:05:35.212Z,6.55
2018-01-17T11:08:05.394Z,6.22
2018-01-17T11:10:31.775Z,5.30
2018-01-17T11:12:58.036Z,7.43
2018-01-17T11:15:24.316Z,6.62
2018-01-17T11:17:51.302Z,6.20
2018-01-17T11:20:17.549Z,6.87
2018-01-17T11:22:44.481Z,5.68
2018-01-17T11:25:10.700Z,6.35
2018-01-17T11:27:39.980Z,6.15
2018-01-17T11:30:06.943Z,5.97
2018-01-17T11:32:33.183Z,6.05
2018-01-17T11:35:00.156Z,6.95
2018-01-17T11:37:26.468Z,8.18
2018-01-17T11:39:52.797Z,8.48
2018-01-17T11:42:24.596Z,9.40
2018-01-17T11:44:50.854Z,9.15
2018-01-17T11:47:17.857Z,10.48
2018-01-17T11:49:44.160Z,10.55
2018-01-17T11:52:10.414Z,9.85
2018-01-17T11:54:36.642Z,10.00
2018-01-17T11:57:02.680Z,8.90
2018-01-17T11:59:28.720Z,9.32
2018-01-17T12:01:56.304Z,10.38
2018-01-17T12:04:22.378Z,9.38
2018-01-17T12:06:48.452Z,10.52
2018-01-17T12:09:14.488Z,12.45
2018-01-17T12:11:40.533Z,12.25
2018-01-17T12:14:07.332Z,10.55
2018-01-17T12:16:33.411Z,11.93
2018-01-17T12:18:59.438Z,12.55
2018-01-17T12:21:29.352Z,14.30
2018-01-17T12:23:55.380Z,13.95
2018-01-17T12:26:21.428Z,13.43
2018-01-17T12:28:47.472Z,14.00
2018-01-17T12:31:13.520Z,10.52
2018-01-17T12:33:39.551Z,11.20
2018-01-17T12:36:05.624Z,10.77
2018-01-17T12:38:31.692Z,11.12
2018-01-17T12:41:05.246Z,12.07
2018-01-17T12:43:32.100Z,10.50
2018-01-17T12:45:58.872Z,17.10
2018-01-17T12:48:24.913Z,9.45
2018-01-17T12:50:50.957Z,9.98
2018-01-17T12:53:16.985Z,10.18
2018-01-17T12:55:43.902Z,9.18
2018-01-17T12:58:09.955Z,11.93
2018-01-17T13:00:39.967Z,9.82
2018-01-17T13:03:06.004Z,10.85
2018-01-17T13:05:32.183Z,11.30
2018-01-17T13:07:58.631Z,11.77
2018-01-17T13:10:25.036Z,10.48
2018-01-17T13:12:51.290Z,8.07
2018-01-17T13:15:25.133Z,9.05
2018-01-17T13:17:51.940Z,8.90
2018-01-17T13:20:19.044Z,8.48
2018-01-17T13:22:46.032Z,8.30
2018-01-17T13:25:12.273Z,7.68
2018-01-17T13:27:38.753Z,6.78
2018-01-17T13:30:04.989Z,9.50
2018-01-17T13:32:32.696Z,9.57
2018-01-17T13:34:58.988Z,9.10
2018-01-17T13:37:26.083Z,8.43
2018-01-17T13:39:53.088Z,8.88
2018-01-17T13:42:19.345Z,8.38
2018-01-17T13:44:45.576Z,7.30
2018-01-17T13:47:11.796Z,8.43
2018-01-17T13:49:38.533Z,8.88
2018-01-17T13:52:04.805Z,9.85
2018-01-17T13:54:31.045Z,7.15
2018-01-17T13:56:57.257Z,6.80
2018-01-17T13:59:23.313Z,7.45
2018-01-17T14:01:49.367Z,8.75
2018-01-17T14:04:15.585Z,8.73
2018-01-17T14:06:41.636Z,8.05
2018-01-17T14:09:07.663Z,8.57
2018-01-17T14:11:33.692Z,6.53
2018-01-17T14:13:59.716Z,6.55
2018-01-17T14:16:30.747Z,5.03
2018-01-17T14:18:57.393Z,5.25
2018-01-17T14:21:29.765Z,5.03
2018-01-17T14:23:55.996Z,4.30
2018-01-17T14:26:22.946Z,3.50
2018-01-17T14:28:49.240Z,4.70
2018-01-17T14:31:15.568Z,4.32
2018-01-17T14:33:43.568Z,6.15
2018-01-17T14:36:09.896Z,4.12
2018-01-17T14:38:35.923Z,4.82
2018-01-17T14:41:01.965Z,5.03
2018-01-17T14:43:28.756Z,6.18
2018-01-17T14:45:54.796Z,5.70
2018-01-17T14:48:20.820Z,6.22
2018-01-17T14:50:46.931Z,6.43
2018-01-17T14:53:13.973Z,7.00
2018-01-17T14:55:40.941Z,4.95
2018-01-17T14:58:07.225Z,5.20
2018-01-17T15:00:33.868Z,2.97
2018-01-17T15:03:00.125Z,3.37
2018-01-17T15:05:26.336Z,3.78
2018-01-17T15:07:52.625Z,4.78
2018-01-17T15:10:18.961Z,2.97
2018-01-17T15:12:45.214Z,4.75
2018-01-17T15:15:11.759Z,3.97
2018-01-17T15:17:39.675Z,4.37
2018-01-17T15:20:05.925Z,3.60
2018-01-17T15:22:32.137Z,5.12
2018-01-17T15:24:58.534Z,5.97
2018-01-17T15:27:25.638Z,4.90
2018-01-17T15:29:52.748Z,5.22
2018-01-17T15:32:19.045Z,5.80
2018-01-17T15:34:46.024Z,4.75
2018-01-17T15:37:13.081Z,5.25
2018-01-17T15:39:39.503Z,4.00
2018-01-17T15:42:06.032Z,3.95
2018-01-17T15:44:32.852Z,3.25
2018-01-17T15:46:58.893Z,4.60
2018-01-17T15:49:24.937Z,3.60
2018-01-17T15:51:51.001Z,4.75
2018-01-17T15:54:17.370Z,3.15
2018-01-17T15:56:43.758Z,3.90
2018-01-17T15:59:10.055Z,4.80
2018-01-17T16:01:36.257Z,4.53
2018-01-17T16:04:02.596Z,4.75
2018-01-17T16:06:28.822Z,5.43
2018-01-17T16:08:54.953Z,4.47
2018-01-17T16:11:21.069Z,6.62
2018-01-17T16:13:47.844Z,5.20
2018-01-17T16:16:13.886Z,6.25
2018-01-17T16:18:39.927Z,6.18
2018-01-17T16:21:05.952Z,5.15
2018-01-17T16:23:32.073Z,4.45
2018-01-17T16:25:58.151Z,5.80
2018-01-17T16:28:24.385Z,4.75
2018-01-17T16:30:50.600Z,4.35
2018-01-17T16:33:17.659Z,4.62
2018-01-17T16:35:43.896Z,4.47
2018-01-17T16:38:10.126Z,4.03
2018-01-17T16:40:36.405Z,3.80
2018-01-17T16:43:02.696Z,4.72
2018-01-17T16:45:28.936Z,5.78
2018-01-17T16:47:55.191Z,5.15
2018-01-17T16:50:21.454Z,4.45
2018-01-17T16:52:48.449Z,4.35
2018-01-17T16:55:14.528Z,5.15
2018-01-17T16:57:40.964Z,4.90
2018-01-17T17:00:07.246Z,3.67
2018-01-17T17:02:33.276Z,4.80
2018-01-17T17:05:00.284Z,4.28
2018-01-17T17:07:26.520Z,3.20
2018-01-17T17:09:53.112Z,5.40
2018-01-17T17:12:19.424Z,5.00
2018-01-17T17:14:45.674Z,5.03
2018-01-17T17:17:11.935Z,4.93
2018-01-17T17:19:38.242Z,5.47
2018-01-17T17:22:04.479Z,5.40
2018-01-17T17:24:30.608Z,6.37
2018-01-17T17:26:56.650Z,5.47
2018-01-17T17:29:22.700Z,3.25
2018-01-17T17:31:48.740Z,3.75
2018-01-17T17:34:15.227Z,4.68
2018-01-17T17:36:41.565Z,4.07
2018-01-17T17:39:07.792Z,4.82
2018-01-17T17:41:34.029Z,4.18
2018-01-17T17:44:00.264Z,4.10
2018-01-17T17:46:26.512Z,3.87
2018-01-17T17:48:53.323Z,3.75
2018-01-17T17:51:19.672Z,3.85
2018-01-17T17:53:46.002Z,5.15
2018-01-17T17:56:13.103Z,4.47
2018-01-17T17:58:39.363Z,3.75
2018-01-17T18:01:06.070Z,3.80
2018-01-17T18:03:32.339Z,4.40
2018-01-17T18:05:58.560Z,4.30
2018-01-17T18:08:24.831Z,3.30
2018-01-17T18:10:51.149Z,3.70
2018-01-17T18:13:17.397Z,4.00
2018-01-17T18:15:44.519Z,4.30
2018-01-17T18:18:11.493Z,5.12
2018-01-17T18:20:44.119Z,4.18
2018-01-17T18:23:10.181Z,3.70
2018-01-17T18:25:36.232Z,4.10
2018-01-17T18:28:02.295Z,3.12
2018-01-17T18:30:28.353Z,4.10
2018-01-17T18:32:54.414Z,3.42
2018-01-17T18:35:20.468Z,3.12
2018-01-17T18:37:46.529Z,4.07
2018-01-17T18:40:17.143Z,4.72
2018-01-17T18:42:43.700Z,4.37
2018-01-17T18:45:09.996Z,5.40
2018-01-17T18:47:37.006Z,3.47
2018-01-17T18:50:03.308Z,3.22
2018-01-17T18:52:29.545Z,4.85
2018-01-17T18:54:55.858Z,4.32
2018-01-17T18:57:21.921Z,4.55
2018-01-17T18:59:48.209Z,5.43
2018-01-17T19:02:14.445Z,4.55
2018-01-17T19:04:41.435Z,3.65
2018-01-17T19:07:08.445Z,3.60
2018-01-17T19:09:34.704Z,3.65
2018-01-17T19:12:01.727Z,3.72
2018-01-17T19:14:29.138Z,4.10
2018-01-17T19:16:57.111Z,4.65
2018-01-17T19:19:23.374Z,4.20
2018-01-17T19:21:49.917Z,3.75
2018-01-17T19:24:16.888Z,3.60
2018-01-17T19:26:44.216Z,4.65
2018-01-17T19:29:10.448Z,4.28
2018-01-17T19:31:36.677Z,4.30
2018-01-17T19:34:02.937Z,6.00
2018-01-17T19:36:29.261Z,4.62
2018-01-17T19:38:55.338Z,5.97
2018-01-17T19:41:22.185Z,4.30
2018-01-17T19:43:48.423Z,3.95
2018-01-17T19:46:14.684Z,6.82
2018-01-17T19:48:41.406Z,5.97
2018-01-17T19:51:07.662Z,4.20
2018-01-17T19:53:33.908Z,5.60
2018-01-17T19:56:00.167Z,3.67
2018-01-17T19:58:26.424Z,3.83
2018-01-17T20:00:52.679Z,4.35
2018-01-17T20:03:19.470Z,3.83
2018-01-17T20:05:45.557Z,4.40
2018-01-17T20:08:11.794Z,3.80
2018-01-17T20:10:38.092Z,3.90
2018-01-17T20:13:06.032Z,4.10
2018-01-17T20:15:32.272Z,4.12
2018-01-17T20:17:58.612Z,3.65
2018-01-17T20:20:24.953Z,4.28
2018-01-17T20:22:57.548Z,5.35
2018-01-17T20:25:23.893Z,3.90
2018-01-17T20:27:52.187Z,7.97
2018-01-17T20:30:19.249Z,3.75
2018-01-17T20:32:45.417Z,4.70
2018-01-17T20:35:12.428Z,4.25
2018-01-17T20:37:38.650Z,4.60
2018-01-17T20:40:05.737Z,5.80
2018-01-17T20:42:32.135Z,5.03
2018-01-17T20:45:00.617Z,4.85
2018-01-17T20:47:26.669Z,4.50
2018-01-17T20:49:52.704Z,4.37
2018-01-17T20:52:18.769Z,4.50
2018-01-17T20:54:45.117Z,4.30
2018-01-17T20:57:11.346Z,4.75
2018-01-17T20:59:37.610Z,2.90
2018-01-17T21:02:03.848Z,3.20
2018-01-17T21:04:30.118Z,3.92
2018-01-17T21:06:56.372Z,3.85
2018-01-17T21:09:26.033Z,3.10
2018-01-17T21:11:52.324Z,3.75
2018-01-17T21:14:19.760Z,3.30
2018-01-17T21:16:46.165Z,3.72
2018-01-17T21:19:13.368Z,4.10
2018-01-17T21:21:39.665Z,3.60
2018-01-17T21:24:05.900Z,4.65
2018-01-17T21:26:32.171Z,5.22
2018-01-17T21:28:58.389Z,3.70
2018-01-17T21:31:24.408Z,4.05
2018-01-17T21:33:50.632Z,4.62
2018-01-17T21:36:16.841Z,3.72
2018-01-17T21:38:43.108Z,3.72
2018-01-17T21:41:09.357Z,4.15
2018-01-17T21:43:41.970Z,2.97
2018-01-17T21:46:08.012Z,3.20
2018-01-17T21:48:34.068Z,3.70
2018-01-17T21:51:01.179Z,3.83
2018-01-17T21:53:27.221Z,3.42
2018-01-17T21:55:53.954Z,3.28
2018-01-17T21:58:20.261Z,4.00
2018-01-17T22:00:47.854Z,4.35
2018-01-17T22:03:14.830Z,5.18
2018-01-17T22:05:41.808Z,4.57
2018-01-17T22:08:09.109Z,3.92
2018-01-17T22:10:35.253Z,3.53
2018-01-17T22:13:01.509Z,4.70
2018-01-17T22:15:28.600Z,3.60
2018-01-17T22:17:54.837Z,5.10
2018-01-17T22:20:21.389Z,3.90
2018-01-17T22:22:47.582Z,4.20
2018-01-17T22:25:14.789Z,4.62
2018-01-17T22:27:40.985Z,4.35
2018-01-17T22:30:07.200Z,3.67
2018-01-17T22:32:33.453Z,4.03
2018-01-17T22:34:59.755Z,4.90
2018-01-17T22:37:26.717Z,3.92
2018-01-17T22:39:54.381Z,4.40
2018-01-17T22:42:20.658Z,6.57
2018-01-17T22:44:46.888Z,4.62
2018-01-17T22:47:13.213Z,5.40
2018-01-17T22:49:40.244Z,4.45
2018-01-17T22:52:07.919Z,5.12
2018-01-17T22:54:34.141Z,4.60
2018-01-17T22:57:00.432Z,4.12
2018-01-17T22:59:27.469Z,3.50
2018-01-17T23:01:53.780Z,4.93
2018-01-17T23:04:23.241Z,4.43
2018-01-17T23:06:49.537Z,3.30
2018-01-17T23:09:15.789Z,4.07
2018-01-17T23:11:42.294Z,4.20
2018-01-17T23:14:08.353Z,4.93
2018-01-17T23:16:34.747Z,5.00
2018-01-17T23:19:00.845Z,5.10
2018-01-17T23:21:26.885Z,4.30
2018-01-17T23:23:52.980Z,4.95
2018-01-17T23:26:19.028Z,3.97
2018-01-17T23:28:45.235Z,5.55
2018-01-17T23:31:11.461Z,4.07
2018-01-17T23:33:37.691Z,5.18
2018-01-17T23:36:03.929Z,4.32
2018-01-17T23:38:30.204Z,5.00
2018-01-17T23:40:56.428Z,3.78
2018-01-17T23:43:22.505Z,4.60
2018-01-17T23:45:48.573Z,4.18
2018-01-17T23:48:14.600Z,4.97
2018-01-17T23:50:40.708Z,3.75
2018-01-17T23:53:07.545Z,4.97
2018-01-17T23:55:33.580Z,4.75
2018-01-17T23:58:00.361Z,4.00
